Terminal Aerodrome Forecast
Issued by NWS

Home | Current Version | Previous Version | Text Only | Print | Product List | Glossary On
Versions: 1 2 3 4 5 6 7 8 9 10 11 12 13 14 15 16 17 18 19 20 21 22 23 24 25 26 27 28 29 30 31 32
000
FTUS43 KDMX 161727
TAFFOD
TAF
KFOD 161727Z 1618/1718 08007KT 2SM -FZRA BR OVC004
     FM162200 04007KT 2SM -FZRA BR OVC004
     FM170000 04007KT 3SM -FZRAPL BR OVC004
     FM170200 02007KT 2SM -FZRAPL BR OVC004
     FM170500 36008KT 3SM BR OVC004=

USA.gov is the U.S. government's official web portal to all federal, state and local government web resources and services.